Time;durP1;ratioP1;P1;durP2;ratioP2;P2;SDS_P1;SDS_P2;PMS_P1;PMS_P2;Temp;Humidity;BMP_temperature;BMP_pressure;BME280_temperature;BME280_humidity;BME280_pressure;Samples;Min_cycle;Max_cycle;Signal;HPM_P1;HPM_P2
2023/06/10 00:00:15;;;;;;;;;;;17.10;99.90;;;;;;4958879;28;20732;-73
2023/06/10 00:02:42;;;;;;;;;;;17.00;99.90;;;;;;4963783;28;19925;-72
2023/06/10 00:05:09;;;;;;;;;;;17.00;99.90;;;;;;4953480;28;19922;-72
2023/06/10 00:07:38;;;;;;;;;;;17.10;99.90;;;;;;4957822;28;19918;-72
2023/06/10 00:10:05;;;;;;;;;;;17.00;99.90;;;;;;4958754;28;19918;-72
2023/06/10 00:12:36;;;;;;;;;;;17.00;99.90;;;;;;4951878;28;20000;-72
2023/06/10 00:15:05;;;;;;;;;;;17.00;99.90;;;;;;4959218;28;20016;-73
2023/06/10 00:17:33;;;;;;;;;;;17.00;99.90;;;;;;4960783;28;19996;-72
2023/06/10 00:19:59;;;;;;;;;;;17.00;99.90;;;;;;4962084;28;19965;-72
2023/06/10 00:22:29;;;;;;;;;;;17.00;99.90;;;;;;4962861;28;20847;-72
2023/06/10 00:24:56;;;;;;;;;;;16.90;99.90;;;;;;4957364;28;20024;-72
2023/06/10 00:27:26;;;;;;;;;;;16.90;99.90;;;;;;4958620;28;20128;-72
2023/06/10 00:29:51;;;;;;;;;;;16.90;99.90;;;;;;4958773;28;19922;-72
2023/06/10 00:32:18;;;;;;;;;;;16.90;99.90;;;;;;4963834;28;19918;-72
2023/06/10 00:34:50;;;;;;;;;;;16.80;99.90;;;;;;4959137;28;19910;-72
2023/06/10 00:37:15;;;;;;;;;;;16.80;99.90;;;;;;4963614;28;19914;-72
2023/06/10 00:39:41;;;;;;;;;;;16.80;99.90;;;;;;4969992;28;19918;-72
2023/06/10 00:42:07;;;;;;;;;;;16.80;99.90;;;;;;4961440;28;20303;-72
2023/06/10 00:44:33;;;;;;;;;;;16.80;99.90;;;;;;4966845;28;20017;-72
2023/06/10 00:47:00;;;;;;;;;;;16.80;99.90;;;;;;4963021;28;19914;-72
2023/06/10 00:49:26;;;;;;;;;;;16.70;99.90;;;;;;4963817;28;19921;-72
2023/06/10 00:51:52;;;;;;;;;;;16.70;99.90;;;;;;4962894;28;20707;-72
2023/06/10 00:54:20;;;;;;;;;;;16.70;99.90;;;;;;4957926;28;19952;-72
2023/06/10 00:56:53;;;;;;;;;;;16.70;99.90;;;;;;4959251;28;19910;-71
2023/06/10 00:59:20;;;;;;;;;;;16.60;99.90;;;;;;4961834;28;19918;-72
2023/06/10 01:01:49;;;;;;;;;;;16.40;99.90;;;;;;4959104;28;19961;-72
2023/06/10 01:04:19;;;;;;;;;;;16.30;99.90;;;;;;4959094;28;20009;-72
2023/06/10 01:06:57;;;;;;;;;;;16.20;99.90;;;;;;4962954;28;19910;-72
2023/06/10 01:09:22;;;;;;;;;;;16.20;99.90;;;;;;4941835;28;19972;-72
2023/06/10 01:11:52;;;;;;;;;;;16.30;99.90;;;;;;4958470;28;19914;-72
2023/06/10 01:14:18;;;;;;;;;;;16.40;99.90;;;;;;4961990;28;19949;-72
2023/06/10 01:16:45;;;;;;;;;;;16.50;99.90;;;;;;4961736;28;19942;-72
2023/06/10 01:19:11;;;;;;;;;;;16.70;99.90;;;;;;4959466;28;20271;-72
2023/06/10 01:21:38;;;;;;;;;;;16.80;99.90;;;;;;4971708;28;19932;-72
2023/06/10 01:24:07;;;;;;;;;;;16.90;99.90;;;;;;4948373;28;19910;-72
2023/06/10 01:26:34;;;;;;;;;;;16.90;99.90;;;;;;4945195;28;19910;-72
2023/06/10 01:29:07;;;;;;;;;;;16.90;99.90;;;;;;4962567;28;20032;-73
2023/06/10 01:31:33;;;;;;;;;;;17.00;99.90;;;;;;4962161;28;19952;-71
2023/06/10 01:34:02;;;;;;;;;;;17.00;99.90;;;;;;4947044;28;19918;-72
2023/06/10 01:36:29;;;;;;;;;;;17.10;99.90;;;;;;4961888;28;20123;-72
2023/06/10 01:38:56;;;;;;;;;;;17.20;99.90;;;;;;4966103;28;19918;-72
2023/06/10 01:41:22;;;;;;;;;;;17.30;99.90;;;;;;4962054;28;20075;-72
2023/06/10 01:43:48;;;;;;;;;;;17.30;99.90;;;;;;4966465;28;20278;-72
2023/06/10 01:46:14;;;;;;;;;;;17.30;99.90;;;;;;4975376;28;19988;-72
2023/06/10 01:48:41;;;;;;;;;;;17.30;99.90;;;;;;4964185;28;19914;-72
2023/06/10 01:51:07;;;;;;;;;;;17.30;99.90;;;;;;4962570;28;19996;-72
2023/06/10 01:53:34;;;;;;;;;;;17.30;99.90;;;;;;4966475;28;20360;-72
2023/06/10 01:56:00;;;;;;;;;;;17.20;99.90;;;;;;4959646;28;19910;-72
2023/06/10 01:58:26;;;;;;;;;;;17.10;99.90;;;;;;4960412;28;19922;-72
2023/06/10 02:00:53;;;;;;;;;;;17.00;99.90;;;;;;4965117;28;20538;-72
2023/06/10 02:03:19;;;;;;;;;;;16.80;99.90;;;;;;4966396;28;19965;-72
2023/06/10 02:05:45;;;;;;;;;;;16.80;99.90;;;;;;4968616;28;20287;-72
2023/06/10 02:08:12;;;;;;;;;;;16.70;99.90;;;;;;4961228;28;20623;-72
2023/06/10 02:10:40;;;;;;;;;;;16.60;99.90;;;;;;4968624;28;19960;-72
2023/06/10 02:13:06;;;;;;;;;;;16.60;99.90;;;;;;4960815;28;19910;-73
2023/06/10 02:15:33;;;;;;;;;;;16.50;99.90;;;;;;4957116;28;19910;-72
2023/06/10 02:18:02;;;;;;;;;;;16.60;99.90;;;;;;4962950;28;19914;-72
2023/06/10 02:26:06;;;;;;;;;;;16.70;99.90;;;;;;4966534;28;19957;-72
2023/06/10 02:31:35;;;;;;;;;;;16.80;99.90;;;;;;4969798;28;19986;-72
2023/06/10 02:37:03;;;;;;;;;;;16.80;99.90;;;;;;4964969;28;19961;-73
2023/06/10 02:42:32;;;;;;;;;;;16.90;99.90;;;;;;4966990;28;19961;-72
2023/06/10 02:48:01;;;;;;;;;;;16.90;99.90;;;;;;4966636;28;19916;-72
2023/06/10 02:53:30;;;;;;;;;;;16.90;99.90;;;;;;4966420;28;19956;-72
2023/06/10 02:58:58;;;;;;;;;;;16.90;99.90;;;;;;4966357;28;19961;-73
2023/06/10 03:04:28;;;;;;;;;;;16.90;99.90;;;;;;4968830;28;20029;-72
2023/06/10 03:06:54;;;;;;;;;;;17.00;99.90;;;;;;4963128;28;20382;-71
2023/06/10 03:09:20;;;;;;;;;;;17.00;99.90;;;;;;4960766;28;19941;-73
2023/06/10 03:11:47;;;;;;;;;;;17.10;99.90;;;;;;4960295;28;19914;-72
2023/06/10 03:14:14;;;;;;;;;;;17.10;99.90;;;;;;4960023;28;19961;-72
2023/06/10 03:16:40;;;;;;;;;;;17.00;99.90;;;;;;4959453;28;19910;-72
2023/06/10 03:19:10;;;;;;;;;;;16.90;99.90;;;;;;4942824;28;19918;-72
2023/06/10 03:21:37;;;;;;;;;;;16.90;99.90;;;;;;4972451;28;19940;-73
2023/06/10 03:24:03;;;;;;;;;;;16.90;99.90;;;;;;4935227;28;19921;-72
2023/06/10 03:26:34;;;;;;;;;;;16.90;99.90;;;;;;4956832;28;19914;-73
2023/06/10 03:29:02;;;;;;;;;;;17.00;99.90;;;;;;4944879;28;19961;-72
2023/06/10 03:31:27;;;;;;;;;;;17.10;99.90;;;;;;4958810;28;19914;-72
2023/06/10 03:33:53;;;;;;;;;;;17.10;99.90;;;;;;4959270;28;19925;-72
2023/06/10 03:36:18;;;;;;;;;;;17.10;99.90;;;;;;4955966;28;20689;-72
2023/06/10 03:38:45;;;;;;;;;;;17.30;99.90;;;;;;4958233;28;19918;-73
2023/06/10 03:41:10;;;;;;;;;;;17.40;99.90;;;;;;4962502;28;19917;-72
2023/06/10 03:43:38;;;;;;;;;;;17.50;99.90;;;;;;4955498;28;19991;-72
2023/06/10 03:46:05;;;;;;;;;;;17.60;99.90;;;;;;4961240;28;20009;-72
2023/06/10 03:48:30;;;;;;;;;;;17.70;99.90;;;;;;4962756;28;19968;-72
2023/06/10 03:50:56;;;;;;;;;;;17.70;99.90;;;;;;4960163;28;19918;-72
2023/06/10 03:53:21;;;;;;;;;;;17.80;99.90;;;;;;4956876;28;20030;-72
2023/06/10 03:55:48;;;;;;;;;;;17.80;99.90;;;;;;4955083;28;20319;-72
2023/06/10 03:58:14;;;;;;;;;;;17.90;99.90;;;;;;4939137;28;20359;-72
2023/06/10 04:00:41;;;;;;;;;;;18.00;99.90;;;;;;4959285;28;19914;-72
2023/06/10 04:03:08;;;;;;;;;;;18.00;99.90;;;;;;4942047;28;20330;-72
2023/06/10 04:05:34;;;;;;;;;;;18.00;99.90;;;;;;4957550;28;19924;-72
2023/06/10 04:08:01;;;;;;;;;;;18.10;99.90;;;;;;4960684;28;19918;-72
2023/06/10 04:10:27;;;;;;;;;;;18.10;99.90;;;;;;4959015;28;19918;-72
2023/06/10 04:12:53;;;;;;;;;;;18.20;99.90;;;;;;4942107;28;19918;-72
2023/06/10 04:15:19;;;;;;;;;;;18.30;99.90;;;;;;4963233;28;19910;-72
2023/06/10 04:17:45;;;;;;;;;;;18.50;99.90;;;;;;4957745;28;19910;-72
2023/06/10 04:20:14;;;;;;;;;;;18.70;99.90;;;;;;4942455;28;19910;-72
2023/06/10 04:22:40;;;;;;;;;;;18.70;99.90;;;;;;4945117;28;19929;-72
2023/06/10 04:25:08;;;;;;;;;;;18.80;99.90;;;;;;4958680;28;19911;-72
2023/06/10 04:27:35;;;;;;;;;;;18.90;99.90;;;;;;4958551;28;19914;-72
2023/06/10 04:30:04;;;;;;;;;;;18.90;99.90;;;;;;4954503;28;19914;-72
2023/06/10 04:32:30;;;;;;;;;;;18.90;99.90;;;;;;4959499;28;19910;-72
2023/06/10 04:34:59;;;;;;;;;;;19.00;99.90;;;;;;4958534;28;19917;-72
2023/06/10 04:37:25;;;;;;;;;;;19.00;99.90;;;;;;4963441;28;20005;-72
2023/06/10 04:39:51;;;;;;;;;;;19.00;99.90;;;;;;4959713;28;20017;-71
2023/06/10 04:42:17;;;;;;;;;;;19.10;99.90;;;;;;4954866;28;20410;-72
2023/06/10 04:44:43;;;;;;;;;;;19.10;99.90;;;;;;4958200;28;20265;-72
2023/06/10 04:47:12;;;;;;;;;;;19.10;99.90;;;;;;4957556;28;19910;-73
2023/06/10 04:49:38;;;;;;;;;;;19.30;99.90;;;;;;4963249;28;19922;-72
2023/06/10 04:52:07;;;;;;;;;;;19.40;99.90;;;;;;4962546;28;19910;-72
2023/06/10 04:54:32;;;;;;;;;;;19.50;99.90;;;;;;4961769;28;19911;-73
2023/06/10 04:57:01;;;;;;;;;;;19.60;99.90;;;;;;4961702;28;20363;-72
2023/06/10 04:59:29;;;;;;;;;;;19.70;99.90;;;;;;4963182;28;20001;-72
2023/06/10 05:01:55;;;;;;;;;;;19.80;99.90;;;;;;4951607;28;19922;-72
2023/06/10 05:04:22;;;;;;;;;;;20.00;99.90;;;;;;4965436;28;19920;-72
2023/06/10 05:06:51;;;;;;;;;;;19.90;99.90;;;;;;4958866;28;19917;-72
2023/06/10 05:09:18;;;;;;;;;;;19.80;99.90;;;;;;4962405;28;19929;-72
2023/06/10 05:11:46;;;;;;;;;;;19.70;99.90;;;;;;4963181;28;19910;-73
2023/06/10 05:14:14;;;;;;;;;;;19.60;99.90;;;;;;4959671;28;20000;-72
2023/06/10 05:16:40;;;;;;;;;;;19.40;99.90;;;;;;4965649;28;19917;-72
2023/06/10 05:19:08;;;;;;;;;;;19.10;99.90;;;;;;4963497;28;20617;-72
2023/06/10 05:21:34;;;;;;;;;;;19.20;99.90;;;;;;4944942;28;20315;-72
2023/06/10 05:23:59;;;;;;;;;;;19.30;99.90;;;;;;4960821;28;20511;-72
2023/06/10 05:26:26;;;;;;;;;;;19.00;99.90;;;;;;4959552;28;19918;-72
2023/06/10 05:28:52;;;;;;;;;;;19.10;99.90;;;;;;4960533;28;19922;-73
2023/06/10 05:31:17;;;;;;;;;;;19.10;99.90;;;;;;4958883;28;19929;-72
2023/06/10 05:33:44;;;;;;;;;;;19.00;99.90;;;;;;4959924;28;19914;-72
2023/06/10 05:36:10;;;;;;;;;;;19.10;99.90;;;;;;4960438;28;19920;-73
2023/06/10 05:38:36;;;;;;;;;;;19.20;99.90;;;;;;4961806;28;19910;-72
2023/06/10 05:41:02;;;;;;;;;;;19.30;99.90;;;;;;4952945;28;19917;-73
2023/06/10 05:43:27;;;;;;;;;;;19.30;99.90;;;;;;4942787;28;20252;-72
2023/06/10 05:45:53;;;;;;;;;;;19.10;99.90;;;;;;4962237;28;20861;-72
2023/06/10 05:48:20;;;;;;;;;;;19.00;99.90;;;;;;4957470;28;21408;-72
2023/06/10 05:50:48;;;;;;;;;;;19.00;99.90;;;;;;4969734;28;20279;-72
2023/06/10 05:53:15;;;;;;;;;;;19.10;99.90;;;;;;4962926;28;19916;-71
2023/06/10 05:55:44;;;;;;;;;;;19.40;99.90;;;;;;4975949;28;19917;-80
2023/06/10 05:58:14;;;;;;;;;;;19.70;99.90;;;;;;4957997;28;19911;-80
2023/06/10 06:50:05;;;;;;;;;;;19.20;99.90;;;;;;5359666;23;20347;-80
2023/06/10 06:52:32;;;;;;;;;;;19.50;99.90;;;;;;4965992;28;19934;-79
2023/06/10 06:55:04;;;;;;;;;;;19.10;99.90;;;;;;4988363;28;19921;-79
2023/06/10 06:57:54;;;;;;;;;;;19.10;99.90;;;;;;5013484;28;19913;-81
2023/06/10 07:00:24;;;;;;;;;;;19.20;99.90;;;;;;4978978;28;20092;-79
2023/06/10 07:05:27;;;;;;;;;;;19.50;99.90;;;;;;5491079;23;20287;-80
2023/06/10 07:07:55;;;;;;;;;;;19.60;99.90;;;;;;4972660;28;19941;-80
2023/06/10 07:10:36;;;;;;;;;;;19.80;99.90;;;;;;4983857;28;19957;-81
2023/06/10 07:13:04;;;;;;;;;;;19.80;99.90;;;;;;4973895;28;19910;-80
2023/06/10 07:15:46;;;;;;;;;;;19.70;99.90;;;;;;4970989;28;19964;-79
2023/06/10 07:18:11;;;;;;;;;;;19.90;99.90;;;;;;4946217;28;19934;-79
2023/06/10 07:20:39;;;;;;;;;;;20.10;99.90;;;;;;4958918;28;20367;-79
2023/06/10 07:23:05;;;;;;;;;;;20.20;99.90;;;;;;4969920;28;19918;-79
2023/06/10 07:25:34;;;;;;;;;;;20.30;99.90;;;;;;4968430;28;19916;-79
2023/06/10 07:27:59;;;;;;;;;;;20.40;99.90;;;;;;4975330;28;19914;-80
2023/06/10 07:30:29;;;;;;;;;;;20.60;99.90;;;;;;4950403;28;19921;-79
2023/06/10 07:32:55;;;;;;;;;;;20.70;99.90;;;;;;4944112;28;19965;-78
2023/06/10 07:35:21;;;;;;;;;;;20.70;99.90;;;;;;4963325;28;20012;-78
2023/06/10 07:37:54;;;;;;;;;;;20.60;99.90;;;;;;4961878;28;20368;-78
2023/06/10 07:40:32;;;;;;;;;;;20.70;99.90;;;;;;4954951;28;19910;-80
2023/06/10 07:42:58;;;;;;;;;;;20.90;99.90;;;;;;4969294;28;19968;-80
2023/06/10 07:45:34;;;;;;;;;;;21.00;99.90;;;;;;4969260;28;19921;-79
2023/06/10 07:47:59;;;;;;;;;;;20.90;99.90;;;;;;4962648;28;19914;-78
2023/06/10 07:50:25;;;;;;;;;;;20.90;99.90;;;;;;4980699;28;19953;-80
2023/06/10 07:52:53;;;;;;;;;;;20.80;99.90;;;;;;4993711;28;19922;-80
2023/06/10 07:55:44;;;;;;;;;;;20.90;99.90;;;;;;4967650;28;19914;-80
2023/06/10 07:58:15;;;;;;;;;;;21.00;99.90;;;;;;4968118;28;19941;-79
2023/06/10 08:03:43;;;;;;;;;;;20.50;99.90;;;;;;4976833;28;20364;-79
2023/06/10 08:06:17;;;;;;;;;;;20.70;99.90;;;;;;4950965;28;19911;-79
2023/06/10 08:08:45;;;;;;;;;;;20.80;99.90;;;;;;4945524;28;19915;-80
2023/06/10 08:11:11;;;;;;;;;;;20.90;99.90;;;;;;4940638;28;20279;-69
2023/06/10 08:13:38;;;;;;;;;;;21.10;99.90;;;;;;4936978;28;19914;-69
2023/06/10 08:16:03;;;;;;;;;;;21.20;99.90;;;;;;4936972;28;20150;-69
2023/06/10 08:18:29;;;;;;;;;;;21.30;99.90;;;;;;4943600;28;19944;-69
2023/06/10 08:20:55;;;;;;;;;;;21.20;99.90;;;;;;4938862;28;20767;-68
2023/06/10 08:23:20;;;;;;;;;;;21.20;99.90;;;;;;4939860;28;19961;-70
2023/06/10 08:25:46;;;;;;;;;;;21.20;99.90;;;;;;4939920;28;19965;-68
2023/06/10 08:28:11;;;;;;;;;;;21.00;99.90;;;;;;4935126;28;19918;-69
2023/06/10 08:30:37;;;;;;;;;;;21.00;99.90;;;;;;4939168;28;20029;-70
2023/06/10 08:33:03;;;;;;;;;;;21.00;99.90;;;;;;4941323;28;20384;-70
2023/06/10 08:35:28;;;;;;;;;;;21.00;99.90;;;;;;4935209;28;20029;-70
2023/06/10 08:37:54;;;;;;;;;;;20.90;99.90;;;;;;4920838;28;20549;-70
2023/06/10 08:40:19;;;;;;;;;;;20.90;99.90;;;;;;4924437;28;19982;-70
2023/06/10 08:42:48;;;;;;;;;;;21.10;99.90;;;;;;4935859;28;20316;-70
2023/06/10 08:45:17;;;;;;;;;;;21.50;99.90;;;;;;4940905;28;20113;-71
2023/06/10 08:47:44;;;;;;;;;;;21.70;99.90;;;;;;4940323;28;20024;-70
2023/06/10 08:50:10;;;;;;;;;;;21.30;99.90;;;;;;4933898;28;20420;-70
2023/06/10 08:52:40;;;;;;;;;;;20.80;99.90;;;;;;4945599;28;20001;-79
2023/06/10 08:55:11;;;;;;;;;;;20.50;99.90;;;;;;4952196;28;19914;-80
2023/06/10 08:57:44;;;;;;;;;;;20.60;99.90;;;;;;4946592;28;19914;-80
2023/06/10 09:00:13;;;;;;;;;;;20.90;99.90;;;;;;4952154;28;19993;-79
2023/06/10 09:02:42;;;;;;;;;;;21.00;99.90;;;;;;4953117;28;19922;-79
2023/06/10 09:05:08;;;;;;;;;;;21.00;99.90;;;;;;4944895;28;20001;-74
2023/06/10 09:07:43;;;;;;;;;;;21.40;99.90;;;;;;4946595;28;20001;-75
2023/06/10 09:10:11;;;;;;;;;;;21.80;99.90;;;;;;4935292;28;19922;-75
2023/06/10 09:12:42;;;;;;;;;;;22.10;99.90;;;;;;4941363;28;19962;-75
2023/06/10 09:15:14;;;;;;;;;;;22.40;99.90;;;;;;4937914;28;19997;-75
2023/06/10 09:17:43;;;;;;;;;;;22.60;99.90;;;;;;4934987;28;19911;-76
2023/06/10 09:20:10;;;;;;;;;;;22.50;99.90;;;;;;4940771;28;19997;-76
2023/06/10 09:22:42;;;;;;;;;;;22.40;99.90;;;;;;4941399;28;19914;-77
2023/06/10 09:25:11;;;;;;;;;;;22.30;99.90;;;;;;4944193;28;20342;-76
2023/06/10 09:27:50;;;;;;;;;;;22.40;99.90;;;;;;4942989;28;19914;-76
2023/06/10 09:30:26;;;;;;;;;;;22.30;99.90;;;;;;4926278;28;20774;-76
2023/06/10 09:32:59;;;;;;;;;;;22.30;99.90;;;;;;4940827;28;20076;-76
2023/06/10 09:35:30;;;;;;;;;;;22.50;99.90;;;;;;4940956;28;20060;-76
2023/06/10 09:38:03;;;;;;;;;;;22.70;99.90;;;;;;4940712;28;19914;-77
2023/06/10 09:40:47;;;;;;;;;;;22.90;99.90;;;;;;4942101;28;19973;-76
2023/06/10 09:43:14;;;;;;;;;;;22.80;99.90;;;;;;4951765;28;20356;-77
2023/06/10 09:45:43;;;;;;;;;;;23.10;99.90;;;;;;4929251;28;19942;-76
2023/06/10 09:48:11;;;;;;;;;;;23.60;99.90;;;;;;4937874;28;19957;-76
2023/06/10 09:50:49;;;;;;;;;;;24.00;99.90;;;;;;4926621;28;20377;-76
2023/06/10 09:53:17;;;;;;;;;;;24.30;99.90;;;;;;4943386;28;19918;-75
2023/06/10 09:55:52;;;;;;;;;;;24.30;99.90;;;;;;4942159;28;19986;-77
2023/06/10 09:58:32;;;;;;;;;;;24.30;99.90;;;;;;4947038;28;19921;-76
2023/06/10 10:00:58;;;;;;;;;;;24.10;99.90;;;;;;4946737;28;19945;-75
2023/06/10 10:03:45;;;;;;;;;;;24.10;99.90;;;;;;4945101;28;19950;-79
2023/06/10 10:06:12;;;;;;;;;;;24.30;99.90;;;;;;4948791;28;20040;-74
2023/06/10 10:08:37;;;;;;;;;;;24.50;99.90;;;;;;4935378;28;20380;-76
2023/06/10 10:11:07;;;;;;;;;;;24.20;99.90;;;;;;4946094;28;19918;-81
2023/06/10 10:13:34;;;;;;;;;;;24.30;99.90;;;;;;4950689;28;20337;-77
2023/06/10 10:16:11;;;;;;;;;;;24.00;99.90;;;;;;4921681;28;20387;-77
2023/06/10 10:18:39;;;;;;;;;;;24.20;99.90;;;;;;4934154;28;19925;-80
2023/06/10 10:21:11;;;;;;;;;;;24.30;99.90;;;;;;4944299;28;19917;-79
2023/06/10 10:23:39;;;;;;;;;;;24.10;99.90;;;;;;4940944;28;19914;-79
2023/06/10 10:26:09;;;;;;;;;;;24.20;99.90;;;;;;4942478;28;19914;-79
2023/06/10 10:28:47;;;;;;;;;;;24.40;99.90;;;;;;4938179;28;20312;-79
2023/06/10 10:31:18;;;;;;;;;;;24.50;99.90;;;;;;4940814;28;19915;-80
2023/06/10 10:34:10;;;;;;;;;;;24.70;99.90;;;;;;4940098;28;19937;-76
2023/06/10 10:36:36;;;;;;;;;;;24.50;99.90;;;;;;4942603;28;19914;-76
2023/06/10 10:39:04;;;;;;;;;;;25.20;99.90;;;;;;4924545;29;20377;-74
2023/06/10 10:41:32;;;;;;;;;;;27.10;99.90;;;;;;4946191;28;20005;-74
2023/06/10 10:43:58;;;;;;;;;;;27.50;99.90;;;;;;4945394;28;19914;-74
2023/06/10 10:46:26;;;;;;;;;;;28.10;99.90;;;;;;4941640;28;19957;-76
2023/06/10 10:48:54;;;;;;;;;;;28.50;99.90;;;;;;4941637;28;19923;-76
2023/06/10 10:51:19;;;;;;;;;;;28.40;99.90;;;;;;4930610;28;19995;-75
2023/06/10 10:54:04;;;;;;;;;;;28.50;99.90;;;;;;4936642;28;19922;-78
2023/06/10 10:56:52;;;;;;;;;;;28.60;99.90;;;;;;4942391;28;19919;-76
2023/06/10 10:59:19;;;;;;;;;;;28.70;99.90;;;;;;4940968;28;19918;-76
2023/06/10 11:01:46;;;;;;;;;;;28.70;99.80;;;;;;4939133;28;20345;-72
2023/06/10 11:04:12;;;;;;;;;;;28.40;99.70;;;;;;4943511;28;19917;-72
2023/06/10 11:06:37;;;;;;;;;;;28.10;99.80;;;;;;4943082;28;19991;-72
2023/06/10 11:09:22;;;;;;;;;;;27.30;99.90;;;;;;4939762;28;19923;-74
2023/06/10 11:11:49;;;;;;;;;;;27.20;99.90;;;;;;4945491;28;20022;-73
2023/06/10 11:14:26;;;;;;;;;;;26.90;99.90;;;;;;4940684;28;19972;-74
2023/06/10 11:16:55;;;;;;;;;;;27.10;99.90;;;;;;4923115;28;19997;-74
2023/06/10 11:19:34;;;;;;;;;;;27.20;99.90;;;;;;4945222;28;19921;-71
2023/06/10 11:22:09;;;;;;;;;;;26.20;99.90;;;;;;4941306;28;19993;-72
2023/06/10 11:24:37;;;;;;;;;;;26.30;99.90;;;;;;4918216;28;19911;-74
2023/06/10 11:27:19;;;;;;;;;;;26.70;99.90;;;;;;4941413;28;19914;-72
2023/06/10 11:30:07;;;;;;;;;;;27.00;99.90;;;;;;4946480;28;19989;-76
2023/06/10 11:32:33;;;;;;;;;;;27.30;99.90;;;;;;4941518;28;20273;-73
2023/06/10 11:35:04;;;;;;;;;;;27.00;99.90;;;;;;4948335;28;19914;-72
2023/06/10 11:37:31;;;;;;;;;;;26.60;99.90;;;;;;4941663;28;19977;-72
2023/06/10 11:39:59;;;;;;;;;;;26.90;99.90;;;;;;4945892;28;19919;-72
2023/06/10 11:42:25;;;;;;;;;;;27.20;99.90;;;;;;4943182;28;19914;-77
2023/06/10 11:44:52;;;;;;;;;;;27.40;99.90;;;;;;4942624;28;19946;-73
2023/06/10 11:47:19;;;;;;;;;;;27.40;99.90;;;;;;4941008;28;19957;-73
2023/06/10 11:49:46;;;;;;;;;;;27.80;99.90;;;;;;4944586;28;19914;-72
2023/06/10 11:52:12;;;;;;;;;;;28.00;99.90;;;;;;4940930;28;19966;-72
2023/06/10 11:54:38;;;;;;;;;;;28.00;99.90;;;;;;4939734;28;19919;-72
2023/06/10 11:57:04;;;;;;;;;;;27.20;99.90;;;;;;4940765;28;19914;-73
2023/06/10 11:59:31;;;;;;;;;;;27.20;99.90;;;;;;4943686;28;19914;-74
2023/06/10 12:01:56;;;;;;;;;;;27.30;99.90;;;;;;4935391;28;19926;-73
2023/06/10 12:04:23;;;;;;;;;;;27.30;99.90;;;;;;4940726;28;20021;-73
2023/06/10 12:06:50;;;;;;;;;;;27.40;99.90;;;;;;4940957;28;19915;-74
2023/06/10 12:09:26;;;;;;;;;;;27.40;99.90;;;;;;4944883;28;19922;-73
2023/06/10 12:11:54;;;;;;;;;;;27.50;99.90;;;;;;4940786;28;19918;-74
2023/06/10 12:14:39;;;;;;;;;;;27.60;99.60;;;;;;4939707;28;20526;-74
2023/06/10 12:17:10;;;;;;;;;;;27.60;99.80;;;;;;4943331;28;19911;-73
2023/06/10 12:19:39;;;;;;;;;;;27.20;99.90;;;;;;4941104;28;19993;-75
2023/06/10 12:22:08;;;;;;;;;;;27.30;99.90;;;;;;4938684;28;19915;-76
2023/06/10 12:24:44;;;;;;;;;;;26.90;99.90;;;;;;4945656;28;20190;-75
2023/06/10 12:27:18;;;;;;;;;;;25.50;99.90;;;;;;4925639;28;20323;-78
2023/06/10 12:29:55;;;;;;;;;;;25.60;99.90;;;;;;4940531;28;19914;-76
2023/06/10 12:32:26;;;;;;;;;;;25.90;99.90;;;;;;4941896;28;19925;-75
2023/06/10 12:35:03;;;;;;;;;;;26.30;99.90;;;;;;4926342;28;19973;-76
2023/06/10 12:37:28;;;;;;;;;;;26.20;99.90;;;;;;4947635;28;19914;-73
2023/06/10 12:39:56;;;;;;;;;;;26.60;99.90;;;;;;4938430;28;19921;-75
2023/06/10 12:42:26;;;;;;;;;;;26.70;99.90;;;;;;4947674;28;19919;-74
2023/06/10 12:45:00;;;;;;;;;;;26.60;99.90;;;;;;4939070;28;21451;-75
2023/06/10 12:47:39;;;;;;;;;;;26.20;99.90;;;;;;4944576;28;19961;-75
2023/06/10 12:50:12;;;;;;;;;;;25.60;99.90;;;;;;4938093;28;19914;-75
2023/06/10 12:52:38;;;;;;;;;;;24.90;99.90;;;;;;4938283;28;19957;-76
2023/06/10 12:55:04;;;;;;;;;;;24.10;99.90;;;;;;4945615;28;20360;-72
2023/06/10 12:57:31;;;;;;;;;;;23.40;99.90;;;;;;4940846;28;19921;-72
2023/06/10 13:00:04;;;;;;;;;;;22.90;99.90;;;;;;4947416;28;19925;-75
2023/06/10 13:02:29;;;;;;;;;;;22.60;99.90;;;;;;4941525;28;19915;-75
2023/06/10 13:04:55;;;;;;;;;;;22.50;99.90;;;;;;4940575;28;20408;-75
2023/06/10 13:07:22;;;;;;;;;;;22.50;99.90;;;;;;4940796;28;19914;-76
2023/06/10 13:09:49;;;;;;;;;;;22.70;99.90;;;;;;4938595;28;19914;-75
2023/06/10 13:12:17;;;;;;;;;;;22.80;99.90;;;;;;4939847;28;19911;-76
2023/06/10 13:14:43;;;;;;;;;;;22.90;99.90;;;;;;4941176;28;20303;-73
2023/06/10 13:17:08;;;;;;;;;;;22.90;99.90;;;;;;4941527;28;19917;-73
2023/06/10 13:19:35;;;;;;;;;;;22.80;99.90;;;;;;4939217;28;19917;-72
2023/06/10 13:22:01;;;;;;;;;;;23.20;99.90;;;;;;4943329;28;19922;-75
2023/06/10 13:24:28;;;;;;;;;;;23.40;99.90;;;;;;4947687;28;19973;-72
2023/06/10 13:26:56;;;;;;;;;;;23.60;99.90;;;;;;4945578;28;19918;-75
2023/06/10 13:29:21;;;;;;;;;;;23.50;99.90;;;;;;4943349;28;19937;-74
2023/06/10 13:31:47;;;;;;;;;;;23.60;99.90;;;;;;4949482;28;19918;-73
2023/06/10 13:34:15;;;;;;;;;;;23.90;99.90;;;;;;4942739;28;20420;-72
2023/06/10 13:36:40;;;;;;;;;;;24.20;99.90;;;;;;4942930;28;20363;-74
2023/06/10 13:39:07;;;;;;;;;;;24.10;99.90;;;;;;4947261;28;19914;-74
2023/06/10 13:41:33;;;;;;;;;;;24.30;99.90;;;;;;4941764;28;19985;-75
2023/06/10 13:44:02;;;;;;;;;;;24.60;99.90;;;;;;4945259;28;19926;-73
2023/06/10 13:46:28;;;;;;;;;;;24.50;99.90;;;;;;4943525;28;19917;-73
2023/06/10 13:48:54;;;;;;;;;;;24.50;99.90;;;;;;4942977;28;19918;-73
2023/06/10 13:51:20;;;;;;;;;;;24.60;99.90;;;;;;4941542;28;20251;-73
2023/06/10 13:53:47;;;;;;;;;;;24.70;99.90;;;;;;4942222;28;20001;-74
2023/06/10 13:56:15;;;;;;;;;;;24.90;99.90;;;;;;4940749;28;19914;-76
2023/06/10 13:58:45;;;;;;;;;;;24.90;99.90;;;;;;4945921;28;20009;-74
2023/06/10 14:01:11;;;;;;;;;;;24.50;99.90;;;;;;4942311;28;20356;-76
2023/06/10 14:03:39;;;;;;;;;;;24.30;99.90;;;;;;4925333;28;19922;-73
2023/06/10 14:06:12;;;;;;;;;;;23.80;99.90;;;;;;4938469;28;19910;-73
2023/06/10 14:08:40;;;;;;;;;;;23.70;99.90;;;;;;4938255;28;20343;-72
2023/06/10 14:11:07;;;;;;;;;;;23.80;99.90;;;;;;4942993;28;19918;-73
2023/06/10 14:13:33;;;;;;;;;;;24.00;99.90;;;;;;4942301;28;19993;-72
2023/06/10 14:16:02;;;;;;;;;;;24.20;99.90;;;;;;4945204;28;19968;-73
2023/06/10 14:18:28;;;;;;;;;;;24.50;99.90;;;;;;4943403;28;19957;-72
2023/06/10 14:20:54;;;;;;;;;;;24.90;99.90;;;;;;4942065;28;20395;-73
2023/06/10 14:23:20;;;;;;;;;;;25.00;99.90;;;;;;4941517;28;20446;-71
2023/06/10 14:25:46;;;;;;;;;;;24.90;99.90;;;;;;4941131;28;20001;-72
2023/06/10 14:28:13;;;;;;;;;;;24.80;99.90;;;;;;4946041;28;19989;-71
2023/06/10 14:30:40;;;;;;;;;;;24.80;99.90;;;;;;4944823;28;19921;-72
2023/06/10 14:33:06;;;;;;;;;;;25.00;99.90;;;;;;4939693;28;20488;-72
2023/06/10 14:35:32;;;;;;;;;;;25.10;99.90;;;;;;4944173;28;19915;-71
2023/06/10 14:37:57;;;;;;;;;;;25.10;99.90;;;;;;4937701;28;20048;-72
2023/06/10 14:40:28;;;;;;;;;;;25.20;99.90;;;;;;4944132;28;20024;-72
2023/06/10 14:42:54;;;;;;;;;;;25.30;99.90;;;;;;4940280;28;19925;-72
2023/06/10 14:45:21;;;;;;;;;;;25.60;99.90;;;;;;4944340;28;19928;-72
2023/06/10 14:47:48;;;;;;;;;;;25.60;99.90;;;;;;4937543;28;19914;-73
2023/06/10 14:50:13;;;;;;;;;;;25.60;99.90;;;;;;4945301;28;20010;-72
2023/06/10 14:52:39;;;;;;;;;;;25.60;99.90;;;;;;4941237;28;20451;-73
2023/06/10 14:55:05;;;;;;;;;;;25.80;99.90;;;;;;4937069;28;19933;-73
2023/06/10 14:57:31;;;;;;;;;;;25.80;99.90;;;;;;4941666;28;20477;-72
2023/06/10 14:59:56;;;;;;;;;;;25.70;99.90;;;;;;4945139;28;19922;-72
2023/06/10 15:02:22;;;;;;;;;;;25.50;99.90;;;;;;4939815;28;19937;-72
2023/06/10 15:04:48;;;;;;;;;;;25.60;99.90;;;;;;4941246;28;19926;-72
2023/06/10 15:07:15;;;;;;;;;;;25.60;99.90;;;;;;4944721;28;19938;-71
2023/06/10 15:09:41;;;;;;;;;;;25.60;99.90;;;;;;4936552;28;19918;-72
2023/06/10 15:12:08;;;;;;;;;;;25.70;99.90;;;;;;4940600;28;20647;-71
2023/06/10 15:14:33;;;;;;;;;;;25.60;99.90;;;;;;4936892;28;19910;-73
2023/06/10 15:17:00;;;;;;;;;;;25.50;99.90;;;;;;4943429;28;19961;-72
2023/06/10 15:19:28;;;;;;;;;;;25.60;99.90;;;;;;4941249;28;19918;-74
2023/06/10 15:21:54;;;;;;;;;;;25.60;99.90;;;;;;4946695;28;19922;-74
2023/06/10 15:24:22;;;;;;;;;;;25.50;99.90;;;;;;4938718;28;19962;-74
2023/06/10 15:26:48;;;;;;;;;;;25.40;99.90;;;;;;4935227;28;19954;-74
2023/06/10 15:29:23;;;;;;;;;;;24.90;99.90;;;;;;4945783;28;19914;-75
2023/06/10 15:31:54;;;;;;;;;;;24.50;99.90;;;;;;4939567;28;19922;-74
2023/06/10 15:34:22;;;;;;;;;;;24.10;99.90;;;;;;4939984;28;20348;-75
2023/06/10 15:36:50;;;;;;;;;;;22.30;99.90;;;;;;4942820;28;21502;-79
2023/06/10 15:39:18;;;;;;;;;;;20.80;99.90;;;;;;4947728;28;19923;-75
2023/06/10 15:41:47;;;;;;;;;;;19.90;99.90;;;;;;4943201;28;20433;-76
2023/06/10 15:44:12;;;;;;;;;;;19.40;99.90;;;;;;4938015;28;19911;-77